createdAt,value
2023-07-17T00:01:55.949Z,51.63
2023-07-17T00:04:22.130Z,51.74
2023-07-17T00:06:48.277Z,51.67
2023-07-17T00:09:14.411Z,51.69
2023-07-17T00:11:40.589Z,51.81
2023-07-17T00:14:06.752Z,51.72
2023-07-17T00:16:33.055Z,51.74
2023-07-17T00:18:59.261Z,51.80
2023-07-17T00:21:25.406Z,51.83
2023-07-17T00:23:51.556Z,51.82
2023-07-17T00:26:17.721Z,51.72
2023-07-17T00:28:43.867Z,51.67
2023-07-17T00:31:10.070Z,51.87
2023-07-17T00:33:36.232Z,51.75
2023-07-17T00:36:02.377Z,51.81
2023-07-17T00:38:28.529Z,51.73
2023-07-17T00:40:54.717Z,51.71
2023-07-17T00:43:20.862Z,51.77
2023-07-17T00:45:47.027Z,51.74
2023-07-17T00:48:13.783Z,51.71
2023-07-17T00:50:39.953Z,51.81
2023-07-17T00:53:06.129Z,51.81
2023-07-17T00:55:32.773Z,51.71
2023-07-17T00:57:58.924Z,51.94
2023-07-17T01:00:25.115Z,51.82
2023-07-17T01:02:51.425Z,51.78
2023-07-17T01:05:17.624Z,51.60
2023-07-17T01:07:43.791Z,51.72
2023-07-17T01:10:09.981Z,51.77
2023-07-17T01:12:36.158Z,51.83
2023-07-17T01:15:02.330Z,51.86
2023-07-17T01:17:28.517Z,51.84
2023-07-17T01:19:54.713Z,51.84
2023-07-17T01:22:20.854Z,51.84
2023-07-17T01:24:47.013Z,51.90
2023-07-17T01:27:13.148Z,51.80
2023-07-17T01:29:39.320Z,51.91
2023-07-17T01:32:05.500Z,51.93
2023-07-17T01:34:31.688Z,52.02
2023-07-17T01:36:57.818Z,51.85
2023-07-17T01:39:23.981Z,51.90
2023-07-17T01:41:50.148Z,51.83
2023-07-17T01:44:16.287Z,51.92
2023-07-17T01:46:42.529Z,51.80
2023-07-17T01:49:08.722Z,51.89
2023-07-17T01:51:34.873Z,51.89
2023-07-17T01:54:01.182Z,51.87
2023-07-17T01:56:27.329Z,51.82
2023-07-17T01:58:53.462Z,51.93
2023-07-17T02:01:20.425Z,51.92
2023-07-17T02:03:46.848Z,51.93
2023-07-17T02:06:12.995Z,51.96
2023-07-17T02:08:39.227Z,51.87
2023-07-17T02:11:05.421Z,51.88
2023-07-17T02:13:31.563Z,51.90
2023-07-17T02:15:57.823Z,51.84
2023-07-17T02:18:24.140Z,51.83
2023-07-17T02:20:50.298Z,51.97
2023-07-17T02:23:16.497Z,51.83
2023-07-17T02:25:42.659Z,51.83
2023-07-17T02:28:08.932Z,51.79
2023-07-17T02:30:35.112Z,51.99
2023-07-17T02:33:01.294Z,51.84
2023-07-17T02:35:27.589Z,51.92
2023-07-17T02:37:53.761Z,51.92
2023-07-17T02:40:19.918Z,51.90
2023-07-17T02:42:46.138Z,51.91
2023-07-17T02:45:12.314Z,51.96
2023-07-17T02:47:38.503Z,52.13
2023-07-17T02:50:04.729Z,52.00
2023-07-17T02:52:30.910Z,51.95
2023-07-17T02:54:57.066Z,51.91
2023-07-17T02:57:23.218Z,51.89
2023-07-17T02:59:49.387Z,51.94
2023-07-17T03:02:15.535Z,51.72
2023-07-17T03:04:41.675Z,51.92
2023-07-17T03:07:07.876Z,51.94
2023-07-17T03:09:34.006Z,51.88
2023-07-17T03:12:00.174Z,51.93
2023-07-17T03:14:26.353Z,51.96
2023-07-17T03:16:52.540Z,51.71
2023-07-17T03:19:18.666Z,51.94
2023-07-17T03:21:44.833Z,51.96
2023-07-17T03:24:10.982Z,51.91
2023-07-17T03:26:37.304Z,51.94
2023-07-17T03:29:03.529Z,51.85
2023-07-17T03:31:29.716Z,51.92
2023-07-17T03:33:55.971Z,51.64
2023-07-17T03:36:22.193Z,51.83
2023-07-17T03:38:48.395Z,51.83
2023-07-17T03:41:14.544Z,51.93
2023-07-17T03:43:40.703Z,51.90
2023-07-17T03:46:06.868Z,51.85
2023-07-17T03:48:33.016Z,51.68
2023-07-17T03:51:01.890Z,51.88
2023-07-17T03:53:29.586Z,51.79
2023-07-17T03:55:55.737Z,51.79
2023-07-17T03:58:22.440Z,51.73
2023-07-17T04:00:48.834Z,51.76
2023-07-17T04:03:15.155Z,51.78
2023-07-17T04:05:42.081Z,51.83
2023-07-17T04:08:08.402Z,51.63
2023-07-17T04:10:34.673Z,51.77
2023-07-17T04:13:00.989Z,51.66
2023-07-17T04:15:27.138Z,51.74
2023-07-17T04:17:53.331Z,51.72
2023-07-17T04:20:19.526Z,51.71
2023-07-17T04:22:45.704Z,51.71
2023-07-17T04:25:11.880Z,51.66
2023-07-17T04:27:38.069Z,51.75
2023-07-17T04:30:04.212Z,51.73
2023-07-17T04:32:30.436Z,51.69
2023-07-17T04:34:56.637Z,51.73
2023-07-17T04:37:22.941Z,51.76
2023-07-17T04:39:49.104Z,51.71
2023-07-17T04:42:15.251Z,51.71
2023-07-17T04:44:41.440Z,51.76
2023-07-17T04:47:07.749Z,51.77
2023-07-17T04:49:33.962Z,51.74
2023-07-17T04:52:00.159Z,51.70
2023-07-17T04:54:26.324Z,51.68
2023-07-17T04:56:52.594Z,51.77
2023-07-17T04:59:18.734Z,51.64
2023-07-17T05:01:44.876Z,51.61
2023-07-17T05:04:11.107Z,51.69
2023-07-17T05:06:37.307Z,51.70
2023-07-17T05:09:03.458Z,51.56
2023-07-17T05:11:29.669Z,51.69
2023-07-17T05:13:55.814Z,51.61
2023-07-17T05:16:21.987Z,51.55
2023-07-17T05:18:48.153Z,51.43
2023-07-17T05:21:14.316Z,51.52
2023-07-17T05:23:40.491Z,51.54
2023-07-17T05:26:06.912Z,51.39
2023-07-17T05:28:33.819Z,51.36
2023-07-17T05:31:00.050Z,51.40
2023-07-17T05:33:26.263Z,51.36
2023-07-17T05:35:52.420Z,51.25
2023-07-17T05:38:18.592Z,51.32
2023-07-17T05:40:44.817Z,51.13
2023-07-17T05:43:10.991Z,51.16
2023-07-17T05:45:37.132Z,51.17
2023-07-17T05:48:03.345Z,51.14
2023-07-17T05:50:29.512Z,51.09
2023-07-17T05:52:55.667Z,51.10
2023-07-17T05:55:21.824Z,51.00
2023-07-17T05:57:47.983Z,51.09
2023-07-17T06:00:14.143Z,51.06
2023-07-17T06:02:40.953Z,50.92
2023-07-17T06:05:07.200Z,51.05
2023-07-17T06:07:33.408Z,50.91
2023-07-17T06:09:59.578Z,51.00
2023-07-17T06:12:25.757Z,51.01
2023-07-17T06:14:51.907Z,51.01
2023-07-17T06:17:18.068Z,50.99
2023-07-17T06:19:44.227Z,51.03
2023-07-17T06:22:10.394Z,51.02
2023-07-17T06:24:36.853Z,50.96
2023-07-17T06:27:03.002Z,51.01
2023-07-17T06:29:29.175Z,51.07
2023-07-17T06:31:55.370Z,50.94
2023-07-17T06:34:21.551Z,51.13
2023-07-17T06:36:47.720Z,51.02
2023-07-17T06:39:13.916Z,51.08
2023-07-17T06:41:40.061Z,51.03
2023-07-17T06:44:06.212Z,51.03
2023-07-17T06:46:32.459Z,51.07
2023-07-17T06:48:58.627Z,51.04
2023-07-17T06:51:24.873Z,50.93
2023-07-17T06:53:51.067Z,51.02
2023-07-17T06:56:17.453Z,51.02
2023-07-17T06:58:43.754Z,51.04
2023-07-17T07:01:09.919Z,51.03
2023-07-17T07:03:36.107Z,50.94
2023-07-17T07:06:02.273Z,51.01
2023-07-17T07:08:28.437Z,50.95
2023-07-17T07:10:54.587Z,51.07
2023-07-17T07:13:20.736Z,51.05
2023-07-17T07:15:46.959Z,50.97
2023-07-17T07:18:13.150Z,50.98
2023-07-17T07:20:39.382Z,50.88
2023-07-17T07:23:05.589Z,50.89
2023-07-17T07:25:31.756Z,50.92
2023-07-17T07:27:57.884Z,50.97
2023-07-17T07:30:24.052Z,50.90
2023-07-17T07:32:50.202Z,50.81
2023-07-17T07:35:16.440Z,50.83
2023-07-17T07:37:42.649Z,50.87
2023-07-17T07:40:08.796Z,50.74
2023-07-17T07:42:34.943Z,50.85
2023-07-17T07:45:01.117Z,50.87
2023-07-17T07:47:27.301Z,50.71
2023-07-17T07:49:53.503Z,50.83
2023-07-17T07:52:19.680Z,50.85
2023-07-17T07:54:45.994Z,50.70
2023-07-17T07:57:12.221Z,50.78
2023-07-17T07:59:38.922Z,50.70
2023-07-17T08:02:05.324Z,50.84
2023-07-17T08:04:31.526Z,50.82
2023-07-17T08:06:57.679Z,50.78
2023-07-17T08:09:23.867Z,50.77
2023-07-17T08:11:50.050Z,50.83
2023-07-17T08:14:16.217Z,50.77
2023-07-17T08:16:42.430Z,50.76
2023-07-17T08:19:08.644Z,50.73
2023-07-17T08:21:35.384Z,50.61
2023-07-17T08:24:01.610Z,50.59
2023-07-17T08:26:28.223Z,50.71
2023-07-17T08:28:54.671Z,50.69
2023-07-17T08:31:20.847Z,50.58
2023-07-17T08:33:47.057Z,50.67
2023-07-17T08:36:13.336Z,50.51
2023-07-17T08:38:39.488Z,50.64
2023-07-17T08:41:05.661Z,50.62
2023-07-17T08:43:31.834Z,50.57
2023-07-17T08:46:00.381Z,50.61
2023-07-17T08:48:27.123Z,50.62
2023-07-17T08:50:53.296Z,50.62
2023-07-17T08:53:19.457Z,50.57
2023-07-17T08:55:45.629Z,50.49
2023-07-17T08:58:11.841Z,50.42
2023-07-17T09:00:38.066Z,50.50
2023-07-17T09:03:04.334Z,50.48
2023-07-17T09:05:31.158Z,50.43
2023-07-17T09:07:57.357Z,50.35
2023-07-17T09:10:23.517Z,50.42
2023-07-17T09:12:49.693Z,50.35
2023-07-17T09:15:15.855Z,50.36
2023-07-17T09:17:42.020Z,50.21
2023-07-17T09:20:08.218Z,50.30
2023-07-17T09:22:34.475Z,50.21
2023-07-17T09:25:00.674Z,50.34
2023-07-17T09:27:26.851Z,50.33
2023-07-17T09:29:52.990Z,50.42
2023-07-17T09:32:19.140Z,50.36
2023-07-17T09:34:45.327Z,50.41
2023-07-17T09:37:11.483Z,50.44
2023-07-17T09:39:37.642Z,50.33
2023-07-17T09:42:03.839Z,50.39
2023-07-17T09:44:29.984Z,50.50
2023-07-17T09:46:56.173Z,50.42
2023-07-17T09:49:22.401Z,50.37
2023-07-17T09:51:48.554Z,50.49
2023-07-17T09:54:14.727Z,50.45
2023-07-17T09:56:40.904Z,50.50
2023-07-17T09:59:07.067Z,50.55
2023-07-17T10:01:33.311Z,50.52
2023-07-17T10:03:59.535Z,50.52
2023-07-17T10:06:25.762Z,50.50
2023-07-17T10:08:51.926Z,50.61
2023-07-17T10:11:18.866Z,50.55
2023-07-17T10:13:45.252Z,50.52
2023-07-17T10:16:11.418Z,50.37
2023-07-17T10:18:37.570Z,50.36
2023-07-17T10:21:03.713Z,50.53
2023-07-17T10:23:29.857Z,50.41
2023-07-17T10:25:56.492Z,50.55
2023-07-17T10:28:22.630Z,50.42
2023-07-17T10:30:48.867Z,50.60
2023-07-17T10:33:15.252Z,50.57
2023-07-17T10:35:41.525Z,50.46
2023-07-17T10:38:07.674Z,50.55
2023-07-17T10:40:33.854Z,50.54
2023-07-17T10:43:00.084Z,50.47
2023-07-17T10:45:26.262Z,50.53
2023-07-17T10:47:53.238Z,50.51
2023-07-17T10:50:19.610Z,50.44
2023-07-17T10:52:45.938Z,50.39
2023-07-17T10:55:12.119Z,50.51
2023-07-17T10:57:38.263Z,50.45
2023-07-17T11:00:04.420Z,50.50
2023-07-17T11:02:30.600Z,50.46
2023-07-17T11:04:56.781Z,50.60
2023-07-17T11:07:22.953Z,50.42
2023-07-17T11:09:49.113Z,50.40
2023-07-17T11:12:15.266Z,50.50
2023-07-17T11:14:41.394Z,50.46
2023-07-17T11:17:07.699Z,50.49
2023-07-17T11:19:33.867Z,50.32
2023-07-17T11:22:00.030Z,50.40
2023-07-17T11:24:26.188Z,50.33
2023-07-17T11:26:52.365Z,50.37
2023-07-17T11:29:18.555Z,50.37
2023-07-17T11:31:45.226Z,50.33
2023-07-17T11:34:11.543Z,50.39
2023-07-17T11:36:37.866Z,50.39
2023-07-17T11:39:04.021Z,50.44
2023-07-17T11:41:30.163Z,50.31
2023-07-17T11:43:56.295Z,50.37
2023-07-17T11:46:22.495Z,50.22
2023-07-17T11:48:48.682Z,50.18
2023-07-17T11:51:14.881Z,50.36
2023-07-17T11:53:41.075Z,50.31
2023-07-17T11:56:07.246Z,50.32
2023-07-17T11:58:33.404Z,50.30
2023-07-17T12:00:59.589Z,50.29
2023-07-17T12:03:25.902Z,50.24
2023-07-17T12:05:52.220Z,50.22
2023-07-17T12:08:18.397Z,50.10
2023-07-17T12:10:44.547Z,50.21
2023-07-17T12:13:10.698Z,50.25
2023-07-17T12:15:36.986Z,50.15
2023-07-17T12:18:03.192Z,50.13
2023-07-17T12:20:29.456Z,50.22
2023-07-17T12:22:55.640Z,50.24
2023-07-17T12:25:21.816Z,50.10
2023-07-17T12:27:47.961Z,50.22
2023-07-17T12:30:14.168Z,50.18
2023-07-17T12:32:40.358Z,50.22
2023-07-17T12:35:06.511Z,50.18
2023-07-17T12:37:32.680Z,50.19
2023-07-17T12:39:58.837Z,50.17
2023-07-17T12:42:24.973Z,50.18
2023-07-17T12:44:51.160Z,50.04
2023-07-17T12:47:17.308Z,50.11
2023-07-17T12:49:43.454Z,50.09
2023-07-17T12:52:09.642Z,50.02
2023-07-17T12:54:35.789Z,50.05
2023-07-17T12:57:01.963Z,50.09
2023-07-17T12:59:28.124Z,50.05
2023-07-17T13:01:54.325Z,50.08
2023-07-17T13:04:20.470Z,50.09
2023-07-17T13:06:46.635Z,49.95
2023-07-17T13:09:12.787Z,50.11
2023-07-17T13:11:38.946Z,50.08
2023-07-17T13:14:05.118Z,50.00
2023-07-17T13:16:31.322Z,50.21
2023-07-17T13:18:57.576Z,50.11
2023-07-17T13:21:24.291Z,50.13
2023-07-17T13:23:50.443Z,50.11
2023-07-17T13:26:16.574Z,49.94
2023-07-17T13:28:42.763Z,50.13
2023-07-17T13:31:24.104Z,50.11
2023-07-17T13:33:50.511Z,50.09
2023-07-17T13:36:16.660Z,50.09
2023-07-17T13:38:42.818Z,49.97
2023-07-17T13:41:09.067Z,50.02
2023-07-17T13:43:35.246Z,49.89
2023-07-17T13:46:01.395Z,50.01
2023-07-17T13:48:27.567Z,50.03
2023-07-17T13:50:53.724Z,49.96
2023-07-17T13:53:19.933Z,50.04
2023-07-17T13:55:46.124Z,50.07
2023-07-17T13:58:15.858Z,50.03
2023-07-17T14:00:42.507Z,50.03
2023-07-17T14:03:09.169Z,49.89
2023-07-17T14:05:35.364Z,49.94
2023-07-17T14:08:01.516Z,49.98
2023-07-17T14:10:27.694Z,49.91
2023-07-17T14:12:53.867Z,49.85
2023-07-17T14:15:22.102Z,49.84
2023-07-17T14:17:48.337Z,49.79
2023-07-17T14:20:14.642Z,49.72
2023-07-17T14:22:40.855Z,49.80
2023-07-17T14:25:07.032Z,49.86
2023-07-17T14:27:33.180Z,49.85
2023-07-17T14:29:59.346Z,49.85
2023-07-17T14:32:25.554Z,49.81
2023-07-17T14:34:51.732Z,49.79
2023-07-17T14:37:17.894Z,49.78
2023-07-17T14:39:44.086Z,49.69
2023-07-17T14:42:10.293Z,49.77
2023-07-17T14:44:36.489Z,49.74
2023-07-17T14:47:02.676Z,49.71
2023-07-17T14:49:28.828Z,49.71
2023-07-17T14:51:54.977Z,49.76
2023-07-17T14:54:21.134Z,49.83
2023-07-17T14:56:47.283Z,49.76
2023-07-17T14:59:13.466Z,49.75
2023-07-17T15:01:39.659Z,49.71
2023-07-17T15:04:05.891Z,49.73
2023-07-17T15:06:32.117Z,49.80
2023-07-17T15:08:58.321Z,49.72
2023-07-17T15:11:24.481Z,49.69
2023-07-17T15:13:50.632Z,49.87
2023-07-17T15:16:16.948Z,49.73
2023-07-17T15:18:44.587Z,49.82
2023-07-17T15:21:11.030Z,49.77
2023-07-17T15:23:37.231Z,49.77
2023-07-17T15:26:03.374Z,49.87
2023-07-17T15:28:29.542Z,49.67
2023-07-17T15:30:55.831Z,49.66
2023-07-17T15:33:22.018Z,49.63
2023-07-17T15:35:48.157Z,49.57
2023-07-17T15:38:14.325Z,49.58
2023-07-17T15:40:40.495Z,49.53
2023-07-17T15:43:06.872Z,49.46
2023-07-17T15:45:33.160Z,49.37
2023-07-17T15:47:59.389Z,49.46
2023-07-17T15:50:25.591Z,49.35
2023-07-17T15:52:51.783Z,49.33
2023-07-17T15:55:17.974Z,49.44
2023-07-17T15:57:44.119Z,49.33
2023-07-17T16:00:10.276Z,49.35
2023-07-17T16:02:36.424Z,49.30
2023-07-17T16:05:02.646Z,49.42
2023-07-17T16:07:28.870Z,49.51
2023-07-17T16:09:55.033Z,49.50
2023-07-17T16:12:23.917Z,49.50
2023-07-17T16:14:50.423Z,49.39
2023-07-17T16:17:16.592Z,49.47
2023-07-17T16:19:42.739Z,49.39
2023-07-17T16:22:08.910Z,49.47
2023-07-17T16:24:35.071Z,49.49
2023-07-17T16:27:01.218Z,49.54
2023-07-17T16:29:27.383Z,49.45
2023-07-17T16:31:53.526Z,49.38
2023-07-17T16:34:19.804Z,49.61
2023-07-17T16:36:46.003Z,49.52
2023-07-17T16:39:12.179Z,49.54
2023-07-17T16:41:38.451Z,49.49
2023-07-17T16:44:04.672Z,49.60
2023-07-17T16:46:30.861Z,49.62
2023-07-17T16:48:57.059Z,49.51
2023-07-17T16:51:23.276Z,49.62
2023-07-17T16:53:49.446Z,49.60
2023-07-17T16:56:15.769Z,49.66
2023-07-17T16:58:42.099Z,49.65
2023-07-17T17:01:08.277Z,49.62
2023-07-17T17:03:34.561Z,49.63
2023-07-17T17:06:00.856Z,49.75
2023-07-17T17:08:27.008Z,49.72
2023-07-17T17:10:53.141Z,49.77
2023-07-17T17:13:19.477Z,49.63
2023-07-17T17:15:46.182Z,49.66
2023-07-17T17:18:12.480Z,49.83
2023-07-17T17:20:38.739Z,49.86
2023-07-17T17:23:04.963Z,49.89
2023-07-17T17:25:31.195Z,49.92
2023-07-17T17:27:57.365Z,49.84
2023-07-17T17:30:23.515Z,49.92
2023-07-17T17:32:49.692Z,49.84
2023-07-17T17:35:16.456Z,49.84
2023-07-17T17:37:42.586Z,49.84
2023-07-17T17:40:08.716Z,49.84
2023-07-17T17:42:34.885Z,49.77
2023-07-17T17:45:01.049Z,49.89
2023-07-17T17:47:27.261Z,49.87
2023-07-17T17:49:53.571Z,49.93
2023-07-17T17:52:19.792Z,49.93
2023-07-17T17:54:45.948Z,49.99
2023-07-17T17:57:12.127Z,49.98
2023-07-17T17:59:38.298Z,49.93
2023-07-17T18:02:04.445Z,50.08
2023-07-17T18:04:30.870Z,50.06
2023-07-17T18:06:57.121Z,49.88
2023-07-17T18:09:23.275Z,50.12
2023-07-17T18:11:49.434Z,50.08
2023-07-17T18:14:15.570Z,50.14
2023-07-17T18:16:41.775Z,50.21
2023-07-17T18:19:08.006Z,50.15
2023-07-17T18:21:34.153Z,50.20
2023-07-17T18:24:00.301Z,50.13
2023-07-17T18:26:26.475Z,50.15
2023-07-17T18:28:52.622Z,50.31
2023-07-17T18:31:19.108Z,50.31
2023-07-17T18:33:45.474Z,50.26
2023-07-17T18:36:11.626Z,50.29
2023-07-17T18:38:37.793Z,50.34
2023-07-17T18:41:04.164Z,50.26
2023-07-17T18:43:30.332Z,50.31
2023-07-17T18:45:57.801Z,50.27
2023-07-17T18:48:26.424Z,50.33
2023-07-17T18:50:54.392Z,50.33
2023-07-17T18:53:20.546Z,50.28
2023-07-17T18:55:46.758Z,50.22
2023-07-17T18:58:12.925Z,50.27
2023-07-17T19:00:39.078Z,50.33
2023-07-17T19:03:05.309Z,50.37
2023-07-17T19:05:31.464Z,50.30
2023-07-17T19:07:57.637Z,50.42
2023-07-17T19:10:23.801Z,50.37
2023-07-17T19:12:49.975Z,50.31
2023-07-17T19:15:16.158Z,50.42
2023-07-17T19:17:42.394Z,50.41
2023-07-17T19:20:08.578Z,50.44
2023-07-17T19:22:34.815Z,50.49
2023-07-17T19:25:01.035Z,50.54
2023-07-17T19:27:27.212Z,50.55
2023-07-17T19:29:53.361Z,50.61
2023-07-17T19:32:19.527Z,50.58
2023-07-17T19:34:45.691Z,50.65
2023-07-17T19:37:11.851Z,50.61
2023-07-17T19:39:38.071Z,50.62
2023-07-17T19:42:04.241Z,50.54
2023-07-17T19:44:30.426Z,50.65
2023-07-17T19:46:56.600Z,50.66
2023-07-17T19:49:22.749Z,50.64
2023-07-17T19:51:48.915Z,50.58
2023-07-17T19:54:15.088Z,50.59
2023-07-17T19:56:41.238Z,50.67
2023-07-17T19:59:07.401Z,50.67
2023-07-17T20:01:33.689Z,50.72
2023-07-17T20:03:59.998Z,50.66
2023-07-17T20:06:26.251Z,50.77
2023-07-17T20:08:52.459Z,50.66
2023-07-17T20:11:18.856Z,50.67
2023-07-17T20:13:45.296Z,50.74
2023-07-17T20:16:11.517Z,50.77
2023-07-17T20:18:37.731Z,50.76
2023-07-17T20:21:03.927Z,50.78
2023-07-17T20:23:30.099Z,50.70
2023-07-17T20:25:56.258Z,50.72
2023-07-17T20:28:22.414Z,50.79
2023-07-17T20:30:48.660Z,50.72
2023-07-17T20:33:14.835Z,50.74
2023-07-17T20:35:41.066Z,50.73
2023-07-17T20:38:07.217Z,50.75
2023-07-17T20:40:33.520Z,50.89
2023-07-17T20:42:59.733Z,50.78
2023-07-17T20:45:25.924Z,50.92
2023-07-17T20:47:52.093Z,50.87
2023-07-17T20:50:18.278Z,50.87
2023-07-17T20:52:44.472Z,50.80
2023-07-17T20:55:10.617Z,50.89
2023-07-17T20:57:36.875Z,50.74
2023-07-17T21:00:03.079Z,50.83
2023-07-17T21:02:29.273Z,50.85
2023-07-17T21:04:55.443Z,50.89
2023-07-17T21:07:21.603Z,50.88
2023-07-17T21:09:47.733Z,50.82
2023-07-17T21:12:13.908Z,50.79
2023-07-17T21:14:40.099Z,50.85
2023-07-17T21:17:06.282Z,50.92
2023-07-17T21:19:32.458Z,50.84
2023-07-17T21:21:58.628Z,50.92
2023-07-17T21:24:24.803Z,50.97
2023-07-17T21:26:50.973Z,50.97
2023-07-17T21:29:17.138Z,50.90
2023-07-17T21:31:43.345Z,50.99
2023-07-17T21:34:09.525Z,50.91
2023-07-17T21:36:35.694Z,51.01
2023-07-17T21:39:01.863Z,51.01
2023-07-17T21:41:28.030Z,51.07
2023-07-17T21:43:54.197Z,50.91
2023-07-17T21:46:20.363Z,51.04
2023-07-17T21:48:46.526Z,51.02
2023-07-17T21:51:13.264Z,51.04
2023-07-17T21:53:39.437Z,51.12
2023-07-17T21:56:05.583Z,51.12
2023-07-17T21:58:33.829Z,51.08
2023-07-17T22:00:59.998Z,51.10
2023-07-17T22:03:26.325Z,51.14
2023-07-17T22:05:53.103Z,51.23
2023-07-17T22:08:19.242Z,51.08
2023-07-17T22:10:45.389Z,51.06
2023-07-17T22:13:12.289Z,51.02
2023-07-17T22:15:39.385Z,51.14
2023-07-17T22:18:19.292Z,51.16
2023-07-17T22:20:51.671Z,51.15
2023-07-17T22:23:17.824Z,51.14
2023-07-17T22:25:43.969Z,51.18
2023-07-17T22:28:10.131Z,51.17
2023-07-17T22:30:36.337Z,51.10
2023-07-17T22:33:02.623Z,51.12
2023-07-17T22:35:28.800Z,51.20
2023-07-17T22:37:54.975Z,51.13
2023-07-17T22:40:21.122Z,51.19
2023-07-17T22:42:47.344Z,51.26
2023-07-17T22:45:13.502Z,51.29
2023-07-17T22:47:39.696Z,51.25
2023-07-17T22:50:05.850Z,51.21
2023-07-17T22:52:32.013Z,51.11
2023-07-17T22:54:58.228Z,51.23
2023-07-17T22:57:24.417Z,51.28
2023-07-17T22:59:50.545Z,51.27
2023-07-17T23:02:16.897Z,51.29
2023-07-17T23:04:43.294Z,51.21
2023-07-17T23:07:09.558Z,51.31
2023-07-17T23:09:35.719Z,51.26
2023-07-17T23:12:02.417Z,51.33
2023-07-17T23:14:28.596Z,51.22
2023-07-17T23:16:54.759Z,51.17
2023-07-17T23:19:21.028Z,51.34
2023-07-17T23:21:47.173Z,51.30
2023-07-17T23:24:13.339Z,51.31
2023-07-17T23:26:39.498Z,51.22
2023-07-17T23:29:05.654Z,51.30
2023-07-17T23:31:31.846Z,51.22
2023-07-17T23:33:58.100Z,51.32
2023-07-17T23:36:24.280Z,51.33
2023-07-17T23:38:50.428Z,51.23
2023-07-17T23:41:16.775Z,51.26
2023-07-17T23:43:43.068Z,51.19
2023-07-17T23:46:09.302Z,51.32
2023-07-17T23:48:35.491Z,51.17
2023-07-17T23:51:01.680Z,51.19
2023-07-17T23:53:27.848Z,51.33
2023-07-17T23:55:54.974Z,51.36
2023-07-17T23:58:21.131Z,51.32
